Boxmeer, Netherlands
Current Conditions -  °F | °C
As of 9:20 PM on Sunday 25 Jan 2015 (Local Time) from EDLV Reporting Station
Light Rain Light Rain  
Wind Chill: 31°   Ceiling: 1900
Heat Index: 37°   Visibility: 1.8mi
Dew Point: 37°   Wind: 9mph
Humidity: 100%   Direction: 210°SSW
Pressure: 30.33"   Gusts: NA
Location:  51.65°N, 5.95°E
Report Text: EDLV 252020Z 21008KT 3000 -RA BR SCT003 BKN019 03/03 Q1027
Loading
Personal Weather Stations






























Interactive Weather Map New forecast layout! Learn more

10-Day Weather Forecast

Advertisements
Track Severe Weather on mobile